Portada
METAR-TAF:

METAR-TAF

Aeroports :

Andersen, Guam, Estats Units d'Amèrica

latitud: 13-35N, longitud: 144-56E, altitud: 187 m

Observació

L'informe es va fer fa 14 minuts, a les 16:56 UTC
Vent 9 kt del Est
Temperatura 26°C
Humitat 84%
Pressió 1011 hPa
Visibilitat: 16.1 km
Escasses núvols a una alçada de 1600 ft

METAR: PGUA 081656Z 09009KT 10SM FEW016 26/23 A2984 RMK AO2A SLP095 T02600232 $

Hora: 03:10 (17:10 UTC)

Pronòstic

L'informe es va fer fa 7 hores i 10 minuts, a les 10:00 UTC
Pronòstic vàlid del 08 a les 10 UTC al 09 a les 16 UTC
Vent 15 kt del Est
Visibilitat 10 km o més
Núvols disperses a una alçada de 1500 ft
Temporalment
l' 08 a les 12 UTC al 09 a les 02 UTC
Vent 20 kt del Est/Sud-Est amb ràfegues de 25 kt
Visibilitat: 3200 m
Cel ennuvolat a una alçada de 1500 ft
xàfecs de pluja

TAF: PGUA 081000Z 0810/0916 10015KT 9999 SCT015 QNH2978INS TEMPO 0812/0902 11020G25KT 3200 SHRA BKN015 TX30/0903Z TN25/0819Z

Observacions i pronòstics meteorològics de més de 4000 aeroports (METAR i TAF).

Les estacions disponibles són els punts grocs i vermells al mapa.

Posi el ratolí al punt desitjat per veure el nom de l'estació.

Feu clic per veure les observacions i els pronòstics meteorològics.

Per canviar el mapa: feu clic els botons verds amb una creu de color negre per apropar; al botó verd amb un guió per allunyar la imatge; o en les fletxes verdes per a mapes adjacents.


METAR-TAF: